createdAt,value
2023-01-29T00:00:26.449Z,2.88
2023-01-29T00:05:49.304Z,2.60
2023-01-29T00:10:52.534Z,6.06
2023-01-29T00:15:57.555Z,5.34
2023-01-29T00:21:00.640Z,2.77
2023-01-29T00:26:03.807Z,2.07
2023-01-29T00:31:08.973Z,2.08
2023-01-29T00:36:14.041Z,1.90
2023-01-29T00:41:35.558Z,3.30
2023-01-29T00:46:38.872Z,5.87
2023-01-29T00:51:42.180Z,3.60
2023-01-29T00:56:45.288Z,3.13
2023-01-29T01:02:06.808Z,4.64
2023-01-29T01:12:12.948Z,3.64
2023-01-29T01:17:16.698Z,3.66
2023-01-29T01:22:20.305Z,3.34
2023-01-29T01:27:23.505Z,3.57
2023-01-29T01:32:26.611Z,4.47
2023-01-29T01:37:29.623Z,5.28
2023-01-29T01:42:32.624Z,2.91
2023-01-29T01:47:39.123Z,2.57
2023-01-29T01:52:47.850Z,3.02
2023-01-29T01:57:55.876Z,2.98
2023-01-29T02:03:20.186Z,2.92
2023-01-29T02:09:03.137Z,2.64
2023-01-29T02:14:06.877Z,2.61
2023-01-29T02:19:22.246Z,3.23
2023-01-29T02:24:44.501Z,3.75
2023-01-29T02:30:06.733Z,4.27
2023-01-29T02:35:29.505Z,4.39
2023-01-29T02:40:32.440Z,4.26
2023-01-29T02:45:41.193Z,2.93
2023-01-29T02:51:01.492Z,3.77
2023-01-29T02:56:04.702Z,4.00
2023-01-29T03:01:40.162Z,4.08
2023-01-29T03:06:49.581Z,4.47
2023-01-29T03:11:56.833Z,4.37
2023-01-29T03:17:01.783Z,4.28
2023-01-29T03:22:08.575Z,4.00
2023-01-29T03:27:33.699Z,4.27
2023-01-29T03:32:38.658Z,4.48
2023-01-29T03:37:48.215Z,4.65
2023-01-29T03:43:13.657Z,4.66
2023-01-29T03:48:29.433Z,4.63
2023-01-29T03:54:10.964Z,4.82
2023-01-29T03:59:23.187Z,3.17
2023-01-29T04:04:37.051Z,3.09
2023-01-29T04:09:51.421Z,3.71
2023-01-29T04:14:57.124Z,4.05
2023-01-29T04:20:01.732Z,4.39
2023-01-29T04:25:09.717Z,4.74
2023-01-29T04:30:26.362Z,4.95
2023-01-29T04:35:38.395Z,4.24
2023-01-29T04:41:16.934Z,3.40
2023-01-29T04:46:27.327Z,3.69
2023-01-29T04:51:42.506Z,3.92
2023-01-29T04:56:55.556Z,3.89
2023-01-29T05:02:01.820Z,4.20
2023-01-29T05:07:09.042Z,4.43
2023-01-29T05:12:14.705Z,4.61
2023-01-29T05:17:20.200Z,4.75
2023-01-29T05:22:23.485Z,4.93
2023-01-29T05:27:54.250Z,4.89
2023-01-29T05:32:57.259Z,4.91
2023-01-29T05:38:00.378Z,5.01
2023-01-29T05:43:04.578Z,5.29
2023-01-29T05:48:07.602Z,4.89
2023-01-29T05:53:10.603Z,3.46
2023-01-29T05:58:14.040Z,4.05
2023-01-29T06:03:17.076Z,4.65
2023-01-29T06:08:20.142Z,5.01
2023-01-29T06:13:23.777Z,5.20
2023-01-29T06:18:27.072Z,5.05
2023-01-29T06:23:30.797Z,5.08
2023-01-29T06:28:34.682Z,4.97
2023-01-29T06:33:37.732Z,5.00
2023-01-29T06:38:40.856Z,5.10
2023-01-29T06:43:48.008Z,5.23
2023-01-29T06:48:51.053Z,5.18
2023-01-29T06:53:56.202Z,5.19
2023-01-29T06:58:59.313Z,5.31
2023-01-29T07:04:03.138Z,5.19
2023-01-29T07:09:06.149Z,5.02
2023-01-29T07:14:09.368Z,5.21
2023-01-29T07:19:12.675Z,5.19
2023-01-29T07:24:16.498Z,5.18
2023-01-29T07:29:19.503Z,5.42
2023-01-29T07:34:22.618Z,5.44
2023-01-29T07:39:25.732Z,5.55
2023-01-29T07:44:28.839Z,5.61
2023-01-29T07:49:31.948Z,5.82
2023-01-29T07:54:34.944Z,5.98
2023-01-29T07:59:37.861Z,5.75
2023-01-29T08:04:40.855Z,4.27
2023-01-29T08:09:43.857Z,4.83
2023-01-29T08:14:47.040Z,5.22
2023-01-29T08:19:49.984Z,5.34
2023-01-29T08:24:59.897Z,5.77
2023-01-29T08:30:04.226Z,6.04
2023-01-29T08:35:07.579Z,6.07
2023-01-29T08:40:13.464Z,6.20
2023-01-29T08:45:16.959Z,6.27
2023-01-29T08:50:20.299Z,6.36
2023-01-29T08:55:23.413Z,6.46
2023-01-29T09:00:26.751Z,6.42
2023-01-29T09:05:30.321Z,5.24
2023-01-29T09:10:34.027Z,5.58
2023-01-29T09:15:36.973Z,6.27
2023-01-29T09:20:39.981Z,6.54
2023-01-29T09:25:44.227Z,6.47
2023-01-29T09:30:47.582Z,6.43
2023-01-29T09:35:50.636Z,6.64
2023-01-29T09:41:16.517Z,6.82
2023-01-29T09:46:43.243Z,5.53
2023-01-29T09:52:05.598Z,5.60
2023-01-29T09:57:15.467Z,6.11
2023-01-29T10:02:21.407Z,6.52
2023-01-29T10:08:02.137Z,6.91
2023-01-29T10:13:40.885Z,7.13
2023-01-29T10:19:21.069Z,7.34
2023-01-29T10:24:38.808Z,7.48
2023-01-29T10:29:47.485Z,6.88
2023-01-29T10:35:00.986Z,6.14
2023-01-29T10:40:20.907Z,6.49
2023-01-29T10:45:49.312Z,6.79
2023-01-29T10:51:02.154Z,6.67
2023-01-29T10:56:41.713Z,6.60
2023-01-29T11:01:44.742Z,6.48
2023-01-29T11:06:49.568Z,6.32
2023-01-29T11:12:03.947Z,6.41
2023-01-29T11:17:15.860Z,6.40
2023-01-29T11:22:27.053Z,6.40
2023-01-29T11:27:35.568Z,6.21
2023-01-29T11:32:38.651Z,6.50
2023-01-29T11:37:44.511Z,6.55
2023-01-29T11:42:48.921Z,6.40
2023-01-29T11:47:56.945Z,6.53
2023-01-29T11:53:00.531Z,6.45
2023-01-29T11:58:11.749Z,6.85
2023-01-29T12:03:18.052Z,6.85
2023-01-29T12:08:23.632Z,6.67
2023-01-29T12:13:28.662Z,6.77
2023-01-29T12:18:39.932Z,6.72
2023-01-29T12:23:53.411Z,6.64
2023-01-29T12:29:26.016Z,6.65
2023-01-29T12:35:01.611Z,6.70
2023-01-29T12:40:15.907Z,6.61
2023-01-29T12:45:22.952Z,6.61
2023-01-29T12:50:37.852Z,6.65
2023-01-29T12:55:44.940Z,6.54
2023-01-29T13:00:52.433Z,6.95
2023-01-29T13:06:09.896Z,6.86
2023-01-29T13:11:52.542Z,6.85
2023-01-29T13:17:03.230Z,7.07
2023-01-29T13:22:22.917Z,7.04
2023-01-29T13:27:29.505Z,7.01
2023-01-29T13:32:35.313Z,6.93
2023-01-29T13:37:47.323Z,6.80
2023-01-29T13:42:53.303Z,6.79
2023-01-29T13:48:28.854Z,6.55
2023-01-29T13:53:41.988Z,6.32
2023-01-29T13:58:44.990Z,6.06
2023-01-29T14:04:07.842Z,6.09
2023-01-29T14:09:38.734Z,6.06
2023-01-29T14:14:57.016Z,6.21
2023-01-29T14:20:17.710Z,6.11
2023-01-29T14:25:31.279Z,6.12
2023-01-29T14:30:35.182Z,5.96
2023-01-29T14:35:38.414Z,5.87
2023-01-29T14:40:44.693Z,5.83
2023-01-29T14:45:49.657Z,5.66
2023-01-29T14:50:56.130Z,5.48
2023-01-29T14:56:10.701Z,5.58
2023-01-29T15:01:37.759Z,5.72
2023-01-29T15:06:48.365Z,5.74
2023-01-29T15:12:30.172Z,5.87
2023-01-29T15:17:40.858Z,5.62
2023-01-29T15:22:44.581Z,5.78
2023-01-29T15:27:48.850Z,5.44
2023-01-29T15:32:52.344Z,5.68
2023-01-29T15:38:20.131Z,5.75
2023-01-29T15:43:38.183Z,5.70
2023-01-29T15:48:43.751Z,5.75
2023-01-29T15:54:02.856Z,5.72
2023-01-29T15:59:09.788Z,5.91
2023-01-29T16:04:19.093Z,5.58
2023-01-29T16:09:25.110Z,5.93
2023-01-29T16:14:30.322Z,6.06
2023-01-29T16:19:33.745Z,5.94
2023-01-29T16:24:38.548Z,5.98
2023-01-29T16:29:41.705Z,6.15
2023-01-29T16:34:48.373Z,5.82
2023-01-29T16:39:54.981Z,5.96
2023-01-29T16:45:03.413Z,5.72
2023-01-29T16:50:18.500Z,5.55
2023-01-29T16:55:25.745Z,5.74
2023-01-29T17:00:31.232Z,5.81
2023-01-29T17:05:37.134Z,5.62
2023-01-29T17:10:47.815Z,5.64
2023-01-29T17:15:50.866Z,5.73
2023-01-29T17:20:53.846Z,6.03
2023-01-29T17:25:57.276Z,5.98
2023-01-29T17:31:06.378Z,6.09
2023-01-29T17:36:15.262Z,6.03
2023-01-29T17:41:30.560Z,5.99
2023-01-29T17:46:33.715Z,5.99
2023-01-29T17:51:36.982Z,6.02
2023-01-29T17:56:40.014Z,5.96
2023-01-29T18:01:43.890Z,5.72
2023-01-29T18:06:49.212Z,5.87
2023-01-29T18:11:53.507Z,5.82
2023-01-29T18:16:57.438Z,5.81
2023-01-29T18:22:01.269Z,5.72
2023-01-29T18:27:04.486Z,5.68
2023-01-29T18:32:07.852Z,5.35
2023-01-29T18:37:13.005Z,5.48
2023-01-29T18:42:17.703Z,5.48
2023-01-29T18:47:20.810Z,5.61
2023-01-29T18:52:23.806Z,5.71
2023-01-29T18:58:26.124Z,5.71
2023-01-29T19:02:51.010Z,5.78
2023-01-29T19:07:54.433Z,5.61
2023-01-29T19:12:57.435Z,5.41
2023-01-29T19:18:00.563Z,5.25
2023-01-29T19:23:03.854Z,5.36
2023-01-29T19:28:07.714Z,5.35
2023-01-29T19:33:11.057Z,5.19
2023-01-29T19:38:18.918Z,5.43
2023-01-29T19:43:22.034Z,5.33
2023-01-29T19:48:26.626Z,5.37
2023-01-29T19:53:30.407Z,5.30
2023-01-29T19:58:34.941Z,5.30
2023-01-29T20:03:38.271Z,5.27
2023-01-29T20:08:41.564Z,5.35
2023-01-29T20:13:48.107Z,5.35
2023-01-29T20:18:51.931Z,5.41
2023-01-29T20:23:55.088Z,5.34
2023-01-29T20:28:58.236Z,5.49
2023-01-29T20:34:01.214Z,5.35
2023-01-29T20:39:04.414Z,5.44
2023-01-29T20:44:08.728Z,5.28
2023-01-29T20:49:12.477Z,5.33
2023-01-29T20:54:15.596Z,5.44
2023-01-29T20:59:18.925Z,5.23
2023-01-29T21:04:22.323Z,5.05
2023-01-29T21:09:25.681Z,5.39
2023-01-29T21:14:29.634Z,5.33
2023-01-29T21:19:33.181Z,5.43
2023-01-29T21:24:36.188Z,5.36
2023-01-29T21:29:39.187Z,5.71
2023-01-29T21:34:42.612Z,5.61
2023-01-29T21:39:46.193Z,5.67
2023-01-29T21:44:49.138Z,5.56
2023-01-29T21:49:52.258Z,5.53
2023-01-29T21:54:55.270Z,5.54
2023-01-29T21:59:59.481Z,5.32
2023-01-29T22:05:17.772Z,5.44
2023-01-29T22:10:22.539Z,5.37
2023-01-29T22:15:25.605Z,5.47
2023-01-29T22:20:30.838Z,5.61
2023-01-29T22:25:34.289Z,5.75
2023-01-29T22:30:37.475Z,5.79
2023-01-29T22:35:40.396Z,5.74
2023-01-29T22:40:49.612Z,5.54
2023-01-29T22:45:53.079Z,5.63
2023-01-29T22:51:09.793Z,5.40
2023-01-29T22:56:12.894Z,5.44
2023-01-29T23:01:19.101Z,5.64
2023-01-29T23:06:22.532Z,5.57
2023-01-29T23:11:25.502Z,5.63
2023-01-29T23:16:28.561Z,5.53
2023-01-29T23:21:31.930Z,5.37
2023-01-29T23:26:53.766Z,5.36
2023-01-29T23:31:56.877Z,5.43
2023-01-29T23:36:59.784Z,5.43
2023-01-29T23:42:03.306Z,5.42
2023-01-29T23:47:06.562Z,5.29
2023-01-29T23:52:09.525Z,5.30
2023-01-29T23:57:12.485Z,5.49
